KTPH/TPH METAR and TAF weather

Enter ICAO airport designator
Station Type Date Time Source
KTPH METAR 2020/12/05 05:56 UTC NOAA

KTPH 050556Z AUTO 34008KT 10SM CLR M03/M23 A3036 RMK AO2 SLP303 T10281228 10089 21056 51014


Station Type Date Time Source
KTPH Decoded METAR 2020/12/05 05:56 UTC NOAA

TONOPAH AIRPORT, NV, United States (KTPH) 38-02N 117-05W 1652M
Dec 05, 2020 - 12:56 AM EST / 2020.12.05 0556 UTC
Wind: from the NNW (340 degrees) at 9 MPH (8 KT):0
Visibility: 10 mile(s):0
Sky conditions: clear
Temperature: 27.0 F (-2.8 C)
Windchill: 17 F (-8 C):1
Dew Point: -9.0 F (-22.8 C)
Relative Humidity: 19%
Pressure (altimeter): 30.36 in. Hg (1028 hPa)
Pressure tendency: 0.04 inches (1.4 hPa) higher than three hours ago
ob: KTPH 050556Z AUTO 34008KT 10SM CLR M03/M23 A3036 RMK AO2 SLP303 T10281228 10089 21056 51014
cycle: 6

Station Type Date Time Source
KTPH TAF 2020/12/05 06:42 UTC NOAA

TAF KTPH 050541Z 0506/0606 36010KT P6SM SKC
FM051900 18005KT P6SM SKC

Example: see airport list